Time;durP1;ratioP1;P1;durP2;ratioP2;P2;SDS_P1;SDS_P2;PMS_P1;PMS_P2;Temp;Humidity;BMP_temperature;BMP_pressure;BME280_temperature;BME280_humidity;BME280_pressure;Samples;Min_cycle;Max_cycle;Signal;HPM_P1;HPM_P2
2022/09/15 00:01:12;;;;;;;;;;;;;;;13.38;100.00;100669.19;5015975;28;19956;-42
2022/09/15 00:03:38;;;;;;;;;;;;;;;13.35;100.00;100669.53;5016491;28;19928;-45
2022/09/15 00:06:03;;;;;;;;;;;;;;;13.38;100.00;100668.34;5014395;28;20216;-43
2022/09/15 00:08:29;;;;;;;;;;;;;;;13.40;100.00;100669.81;5016193;28;20327;-45
2022/09/15 00:10:57;;;;;;;;;;;;;;;13.44;100.00;100662.25;5012995;28;19967;-43
2022/09/15 00:13:22;;;;;;;;;;;;;;;13.43;100.00;100657.91;5016650;28;20291;-43
2022/09/15 00:15:48;;;;;;;;;;;;;;;13.45;100.00;100658.56;5015125;28;19943;-42
2022/09/15 00:18:13;;;;;;;;;;;;;;;13.45;100.00;100658.56;5015849;28;20380;-43
2022/09/15 00:20:39;;;;;;;;;;;;;;;13.45;100.00;100655.88;5014828;28;19990;-43
2022/09/15 00:23:04;;;;;;;;;;;;;;;13.48;100.00;100646.63;5015859;28;20862;-44
2022/09/15 00:25:29;;;;;;;;;;;;;;;13.48;100.00;100652.81;5015206;28;20023;-43
2022/09/15 00:27:54;;;;;;;;;;;;;;;13.48;100.00;100655.50;5013695;28;20197;-43
2022/09/15 00:30:19;;;;;;;;;;;;;;;13.48;100.00;100641.25;5014653;28;20000;-43
2022/09/15 00:32:44;;;;;;;;;;;;;;;13.51;100.00;100654.28;5015875;28;20139;-44
2022/09/15 00:35:10;;;;;;;;;;;;;;;13.49;100.00;100646.41;5006228;28;20008;-42
2022/09/15 00:37:35;;;;;;;;;;;;;;;13.51;100.00;100643.56;5015731;28;19943;-45
2022/09/15 00:40:00;;;;;;;;;;;;;;;13.51;100.00;100646.22;5013478;28;20289;-44
2022/09/15 00:42:25;;;;;;;;;;;;;;;13.52;100.00;100638.00;5009042;28;19945;-42
2022/09/15 00:44:53;;;;;;;;;;;;;;;13.53;100.00;100645.06;5005287;28;20031;-43
2022/09/15 00:47:21;;;;;;;;;;;;;;;13.55;100.00;100651.06;5014801;28;20444;-44
2022/09/15 00:49:47;;;;;;;;;;;;;;;13.59;100.00;100656.88;5013246;28;20118;-42
2022/09/15 00:52:16;;;;;;;;;;;;;;;13.62;100.00;100660.03;5004502;28;19953;-42
2022/09/15 00:54:43;;;;;;;;;;;;;;;13.66;100.00;100656.97;5014873;28;20391;-45
2022/09/15 00:57:18;;;;;;;;;;;;;;;13.66;100.00;100659.66;5013359;28;19917;-43
2022/09/15 00:59:44;;;;;;;;;;;;;;;13.66;100.00;100671.22;5014106;28;20374;-48
2022/09/15 01:02:24;;;;;;;;;;;;;;;13.64;100.00;100662.53;5012626;28;20625;-45
2022/09/15 01:04:53;;;;;;;;;;;;;;;13.65;100.00;100668.75;5012058;28;20372;-42
2022/09/15 01:07:26;;;;;;;;;;;;;;;13.67;100.00;100669.38;5014692;28;19924;-42
2022/09/15 01:09:53;;;;;;;;;;;;;;;13.66;100.00;100670.38;5005654;28;20054;-45
2022/09/15 01:12:20;;;;;;;;;;;;;;;13.67;100.00;100672.06;5012665;28;20050;-43
2022/09/15 01:14:45;;;;;;;;;;;;;;;13.66;100.00;100662.34;5012516;28;19917;-44
2022/09/15 01:17:19;;;;;;;;;;;;;;;13.67;100.00;100670.22;5013529;28;19925;-43
2022/09/15 01:19:59;;;;;;;;;;;;;;;13.70;100.00;100658.28;5012629;28;20276;-43
2022/09/15 01:22:34;;;;;;;;;;;;;;;13.74;100.00;100657.69;5010267;28;19965;-43
2022/09/15 01:25:18;;;;;;;;;;;;;;;13.76;100.00;100658.38;5011756;28;19917;-42
2022/09/15 01:27:58;;;;;;;;;;;;;;;13.75;100.00;100662.06;5015839;28;19909;-42
2022/09/15 01:30:24;;;;;;;;;;;;;;;13.78;100.00;100655.47;5010998;28;19928;-43
2022/09/15 01:33:05;;;;;;;;;;;;;;;13.77;100.00;100651.97;5014976;28;19918;-41
2022/09/15 01:35:33;;;;;;;;;;;;;;;13.75;100.00;100650.50;5012966;28;20375;-44
2022/09/15 01:38:17;;;;;;;;;;;;;;;13.72;100.00;100657.06;5014929;28;19921;-41
2022/09/15 01:41:01;;;;;;;;;;;;;;;13.70;100.00;100647.53;5009125;28;20395;-46
2022/09/15 01:43:28;;;;;;;;;;;;;;;13.68;100.00;100653.09;5013637;28;19925;-42
2022/09/15 01:45:53;;;;;;;;;;;;;;;13.66;100.00;100648.91;5013917;28;20308;-43
2022/09/15 01:48:20;;;;;;;;;;;;;;;13.61;100.00;100657.53;5014619;28;20854;-42
2022/09/15 01:50:49;;;;;;;;;;;;;;;13.55;100.00;100653.75;5012687;28;19943;-43
2022/09/15 01:53:16;;;;;;;;;;;;;;;13.48;100.00;100647.47;5014048;28;19917;-44
2022/09/15 01:55:53;;;;;;;;;;;;;;;13.47;100.00;100648.47;5011283;28;19936;-42
2022/09/15 01:58:18;;;;;;;;;;;;;;;13.41;100.00;100647.34;5005005;28;20012;-46
2022/09/15 02:00:47;;;;;;;;;;;;;;;13.41;100.00;100647.34;5013771;28;19917;-44
2022/09/15 02:03:38;;;;;;;;;;;;;;;13.42;100.00;100642.81;5013444;28;19975;-44
2022/09/15 02:06:07;;;;;;;;;;;;;;;13.45;100.00;100650.50;5005836;28;19917;-43
2022/09/15 02:08:35;;;;;;;;;;;;;;;13.45;100.00;100647.81;5004688;28;19917;-43
2022/09/15 02:11:21;;;;;;;;;;;;;;;13.43;100.00;100648.00;5012401;28;19963;-43
2022/09/15 02:14:09;;;;;;;;;;;;;;;13.38;100.00;100646.91;5011069;28;19925;-45
2022/09/15 02:16:35;;;;;;;;;;;;;;;13.35;100.00;100652.63;5012872;28;19921;-41
2022/09/15 02:19:29;;;;;;;;;;;;;;;13.32;100.00;100645.75;5012496;28;19917;-44
2022/09/15 02:22:06;;;;;;;;;;;;;;;13.29;100.00;100648.81;5011328;28;19940;-43
2022/09/15 02:24:36;;;;;;;;;;;;;;;13.24;100.00;100645.84;5012117;28;20366;-45
2022/09/15 02:27:02;;;;;;;;;;;;;;;13.20;100.00;100647.22;5000607;28;19921;-43
2022/09/15 02:29:29;;;;;;;;;;;;;;;13.17;100.00;100653.78;5013433;28;20590;-42
2022/09/15 02:31:56;;;;;;;;;;;;;;;13.15;100.00;100657.66;5012312;28;20231;-42
2022/09/15 02:34:24;;;;;;;;;;;;;;;13.13;100.00;100651.66;5012058;28;20032;-46
2022/09/15 02:36:51;;;;;;;;;;;;;;;13.11;100.00;100648.31;5010813;28;19980;-43
2022/09/15 02:39:18;;;;;;;;;;;;;;;13.09;100.00;100645.00;5014008;28;20512;-45
2022/09/15 02:41:44;;;;;;;;;;;;;;;13.05;100.00;100649.88;5013794;28;20098;-42
2022/09/15 02:44:09;;;;;;;;;;;;;;;13.02;100.00;100652.94;5011078;28;19987;-44
2022/09/15 02:46:35;;;;;;;;;;;;;;;12.98;100.00;100647.09;5016131;28;20351;-44
2022/09/15 02:49:00;;;;;;;;;;;;;;;12.96;100.00;100645.59;5009567;28;19917;-42
2022/09/15 02:51:25;;;;;;;;;;;;;;;12.93;100.00;100654.00;5011814;28;19987;-43
2022/09/15 02:53:52;;;;;;;;;;;;;;;12.92;100.00;100647.00;5002328;28;19964;-45
2022/09/15 02:56:17;;;;;;;;;;;;;;;12.92;100.00;100653.19;5009698;28;20367;-42
2022/09/15 02:58:42;;;;;;;;;;;;;;;12.92;100.00;100652.34;5008125;28;19925;-44
2022/09/15 03:01:14;;;;;;;;;;;;;;;12.92;100.00;100647.81;4999948;28;20119;-42
2022/09/15 03:03:40;;;;;;;;;;;;;;;12.97;100.00;100649.97;5000473;28;19922;-42
2022/09/15 03:06:18;;;;;;;;;;;;;;;13.02;100.00;100645.72;5009008;28;19932;-42
2022/09/15 03:08:54;;;;;;;;;;;;;;;13.07;100.00;100654.03;5010526;28;19924;-45
2022/09/15 03:11:20;;;;;;;;;;;;;;;13.14;100.00;100648.78;5001319;28;19957;-48
2022/09/15 03:13:46;;;;;;;;;;;;;;;13.16;100.00;100654.78;5000885;28;20333;-45
2022/09/15 03:16:12;;;;;;;;;;;;;;;13.15;100.00;100663.88;5013344;28;20016;-43
2022/09/15 03:18:38;;;;;;;;;;;;;;;13.17;100.00;100671.72;5010548;28;19921;-45
2022/09/15 03:21:04;;;;;;;;;;;;;;;13.18;100.00;100673.38;5014344;28;19917;-45
2022/09/15 03:23:30;;;;;;;;;;;;;;;13.17;100.00;100671.72;5016505;28;19986;-41
2022/09/15 03:25:57;;;;;;;;;;;;;;;13.20;100.00;100677.56;5006636;28;19918;-42
2022/09/15 03:28:22;;;;;;;;;;;;;;;13.19;100.00;100677.75;5016018;28;19947;-46
2022/09/15 03:30:48;;;;;;;;;;;;;;;13.21;100.00;100684.56;5016015;28;20368;-43
2022/09/15 03:33:13;;;;;;;;;;;;;;;13.24;100.00;100681.53;5015835;28;19924;-44
2022/09/15 03:35:38;;;;;;;;;;;;;;;13.25;100.00;100685.91;5015043;28;19981;-44
2022/09/15 03:38:03;;;;;;;;;;;;;;;13.29;100.00;100696.22;5016677;28;19917;-43
2022/09/15 03:40:29;;;;;;;;;;;;;;;13.31;100.00;100695.06;5015029;28;20170;-43
2022/09/15 03:42:54;;;;;;;;;;;;;;;13.33;100.00;100698.41;5015517;28;19925;-41
2022/09/15 03:45:19;;;;;;;;;;;;;;;13.35;100.00;100696.38;5014556;28;19975;-47
2022/09/15 03:47:45;;;;;;;;;;;;;;;13.35;100.00;100698.22;5013818;28;19932;-42
2022/09/15 03:50:10;;;;;;;;;;;;;;;13.35;100.00;100704.41;5013989;28;20331;-43
2022/09/15 03:52:35;;;;;;;;;;;;;;;13.39;100.00;100699.50;5012825;28;20341;-44
2022/09/15 03:55:00;;;;;;;;;;;;;;;13.43;100.00;100708.88;5007314;28;19932;-42
2022/09/15 03:57:25;;;;;;;;;;;;;;;13.46;100.00;100704.97;5015772;28;19921;-42
2022/09/15 03:59:50;;;;;;;;;;;;;;;13.46;100.00;100702.28;5013934;28;20028;-46
2022/09/15 04:02:16;;;;;;;;;;;;;;;13.45;100.00;100697.97;5015825;28;20458;-43
2022/09/15 04:04:41;;;;;;;;;;;;;;;13.44;100.00;100697.13;5014647;28;19960;-45
2022/09/15 04:07:07;;;;;;;;;;;;;;;13.43;100.00;100688.25;5014935;28;20299;-42
2022/09/15 04:09:33;;;;;;;;;;;;;;;13.42;100.00;100685.75;5012933;28;19999;-42
2022/09/15 04:11:58;;;;;;;;;;;;;;;13.41;100.00;100687.59;5014413;28;19925;-43
2022/09/15 04:14:23;;;;;;;;;;;;;;;13.41;100.00;100686.78;4998141;28;19921;-42
2022/09/15 04:16:48;;;;;;;;;;;;;;;13.39;100.00;100681.59;5008816;28;20324;-44
2022/09/15 04:19:14;;;;;;;;;;;;;;;13.39;100.00;100688.78;5013800;28;20000;-45
2022/09/15 04:21:39;;;;;;;;;;;;;;;13.37;100.00;100678.25;5014978;28;20293;-42
2022/09/15 04:24:04;;;;;;;;;;;;;;;13.37;100.00;100675.59;5014835;28;20036;-42
2022/09/15 04:26:32;;;;;;;;;;;;;;;13.37;100.00;100672.91;5005338;28;20429;-43
2022/09/15 04:28:57;;;;;;;;;;;;;;;13.37;100.00;100680.94;5015082;28;19940;-46
2022/09/15 04:31:22;;;;;;;;;;;;;;;13.36;100.00;100679.28;5011257;28;20386;-41
2022/09/15 04:33:50;;;;;;;;;;;;;;;13.36;100.00;100681.94;5016304;28;20404;-44
2022/09/15 04:36:17;;;;;;;;;;;;;;;13.38;100.00;100684.44;5012891;28;19929;-44
2022/09/15 04:38:43;;;;;;;;;;;;;;;13.37;100.00;100682.78;5015493;28;19924;-44
2022/09/15 04:41:08;;;;;;;;;;;;;;;13.37;100.00;100685.47;5013595;28;19917;-43
2022/09/15 04:43:34;;;;;;;;;;;;;;;13.37;100.00;100685.47;5014886;28;20471;-42
2022/09/15 04:45:59;;;;;;;;;;;;;;;13.35;100.00;100680.28;5010325;28;19921;-43
2022/09/15 04:48:24;;;;;;;;;;;;;;;13.33;100.00;100679.63;5010958;28;19928;-44
2022/09/15 04:50:50;;;;;;;;;;;;;;;13.30;100.00;100679.97;5011602;28;19920;-43
2022/09/15 04:53:15;;;;;;;;;;;;;;;13.24;100.00;100680.72;5015291;28;19932;-43
2022/09/15 04:55:40;;;;;;;;;;;;;;;13.21;100.00;100684.56;5014281;28;19917;-45
2022/09/15 04:58:05;;;;;;;;;;;;;;;13.17;100.00;100687.78;5011649;28;19977;-45
2022/09/15 05:00:33;;;;;;;;;;;;;;;13.15;100.00;100684.47;5013234;28;19940;-43
2022/09/15 05:02:58;;;;;;;;;;;;;;;13.16;100.00;100686.16;5015058;28;19921;-43
2022/09/15 05:05:24;;;;;;;;;;;;;;;13.16;100.00;100676.25;5008714;28;20099;-43
2022/09/15 05:07:49;;;;;;;;;;;;;;;13.17;100.00;100685.13;5013304;28;20419;-43
2022/09/15 05:10:14;;;;;;;;;;;;;;;13.16;100.00;100681.59;5013950;28;20291;-42
2022/09/15 05:12:40;;;;;;;;;;;;;;;13.18;100.00;100673.38;5012485;28;19936;-45
2022/09/15 05:15:05;;;;;;;;;;;;;;;13.18;100.00;100676.88;5010551;28;20197;-43
2022/09/15 05:17:31;;;;;;;;;;;;;;;13.20;100.00;100674.88;5014120;28;19931;-46
2022/09/15 05:19:56;;;;;;;;;;;;;;;13.24;100.00;100684.22;5009996;28;20012;-45
2022/09/15 05:22:22;;;;;;;;;;;;;;;13.24;100.00;100680.72;5010216;28;19979;-43
2022/09/15 05:24:47;;;;;;;;;;;;;;;13.27;100.00;100690.22;5003362;28;20263;-43
2022/09/15 05:27:12;;;;;;;;;;;;;;;13.26;100.00;100686.72;5004338;28;20219;-45
2022/09/15 05:29:37;;;;;;;;;;;;;;;13.27;100.00;100691.03;5014816;28;19913;-43
2022/09/15 05:32:02;;;;;;;;;;;;;;;13.25;100.00;100691.25;4997851;28;20312;-41
2022/09/15 05:34:28;;;;;;;;;;;;;;;13.25;100.00;100693.94;5005460;28;19932;-43
2022/09/15 05:36:53;;;;;;;;;;;;;;;13.24;100.00;100692.25;5007226;28;19917;-44
2022/09/15 05:39:18;;;;;;;;;;;;;;;13.27;100.00;100695.59;5005799;28;20352;-42
2022/09/15 05:41:43;;;;;;;;;;;;;;;13.27;100.00;100701.78;5003938;28;19920;-42
2022/09/15 05:44:08;;;;;;;;;;;;;;;13.31;100.00;100696.91;5001815;28;19925;-45
2022/09/15 05:46:34;;;;;;;;;;;;;;;13.33;100.00;100702.94;5003533;28;19921;-43
2022/09/15 05:48:59;;;;;;;;;;;;;;;13.35;100.00;100696.38;4994376;28;19913;-45
2022/09/15 05:51:24;;;;;;;;;;;;;;;13.40;100.00;100711.91;4999853;28;20319;-45
2022/09/15 05:53:49;;;;;;;;;;;;;;;13.46;100.00;100707.66;5000996;28;19917;-45
2022/09/15 05:56:16;;;;;;;;;;;;;;;13.48;100.00;100717.22;5003901;28;19917;-42
2022/09/15 05:58:42;;;;;;;;;;;;;;;13.52;100.00;100717.69;5003025;28;20481;-43
2022/09/15 06:01:10;;;;;;;;;;;;;;;13.55;100.00;100717.31;4995080;28;20454;-44
2022/09/15 06:03:35;;;;;;;;;;;;;;;13.58;100.00;100717.78;5007021;28;19928;-46
2022/09/15 06:06:01;;;;;;;;;;;;;;;13.64;100.00;100718.88;4997666;28;20055;-45
2022/09/15 06:08:34;;;;;;;;;;;;;;;13.71;100.00;100718.97;5006655;28;19917;-44
2022/09/15 06:11:00;;;;;;;;;;;;;;;13.75;100.00;100725.66;5006847;28;19925;-43
2022/09/15 06:13:25;;;;;;;;;;;;;;;13.77;100.00;100727.13;5002705;28;19917;-46
2022/09/15 06:15:50;;;;;;;;;;;;;;;13.77;100.00;100727.13;4997560;28;19995;-44
2022/09/15 06:18:16;;;;;;;;;;;;;;;13.78;100.00;100726.13;5003746;28;19936;-42
2022/09/15 06:20:41;;;;;;;;;;;;;;;13.80;100.00;100729.44;5016869;28;20199;-44
2022/09/15 06:23:06;;;;;;;;;;;;;;;13.85;100.00;100730.72;5017124;28;19925;-43
2022/09/15 06:25:32;;;;;;;;;;;;;;;13.88;100.00;100733.88;5011200;28;19960;-42
2022/09/15 06:27:57;;;;;;;;;;;;;;;13.90;100.00;100726.47;5000940;28;19917;-42
2022/09/15 06:30:23;;;;;;;;;;;;;;;14.01;100.00;100743.13;4998479;28;19971;-45
2022/09/15 06:32:48;;;;;;;;;;;;;;;14.08;100.00;100744.88;5005443;28;20192;-43
2022/09/15 06:35:14;;;;;;;;;;;;;;;14.15;100.00;100751.19;4996919;28;19917;-43
2022/09/15 06:37:39;;;;;;;;;;;;;;;14.21;100.00;100749.59;5006127;28;20019;-42
2022/09/15 06:40:06;;;;;;;;;;;;;;;14.30;100.00;100753.84;5000884;28;19983;-44
2022/09/15 06:42:31;;;;;;;;;;;;;;;14.39;100.00;100756.41;4999903;28;20541;-44
2022/09/15 06:44:57;;;;;;;;;;;;;;;14.45;100.00;100756.50;4998786;28;20217;-42
2022/09/15 06:47:22;;;;;;;;;;;;;;;14.49;100.00;100760.50;5012406;28;20256;-42
2022/09/15 06:49:48;;;;;;;;;;;;;;;14.55;100.00;100767.78;5014810;28;20059;-45
2022/09/15 06:52:13;;;;;;;;;;;;;;;14.60;100.00;100764.56;5011212;28;19917;-43
2022/09/15 06:54:38;;;;;;;;;;;;;;;14.63;100.00;100766.88;5013886;28;19928;-44
2022/09/15 06:57:03;;;;;;;;;;;;;;;14.67;100.00;100768.16;5006282;28;19917;-47
2022/09/15 06:59:28;;;;;;;;;;;;;;;14.73;100.00;100772.78;5005999;28;19961;-42
2022/09/15 07:01:54;;;;;;;;;;;;;;;14.81;100.00;100771.81;5009917;28;19936;-44
2022/09/15 07:04:19;;;;;;;;;;;;;;;14.89;100.00;100778.94;4996787;28;20475;-43
2022/09/15 07:06:45;;;;;;;;;;;;;;;14.95;100.00;100769.25;5003863;28;19920;-43
2022/09/15 07:09:10;;;;;;;;;;;;;;;15.02;100.00;100772.84;4997203;28;19937;-43
2022/09/15 07:11:35;;;;;;;;;;;;;;;15.12;100.00;100781.41;5003681;28;19951;-44
2022/09/15 07:14:00;;;;;;;;;;;;;;;15.16;100.00;100776.50;4999412;28;19920;-43
2022/09/15 07:16:25;;;;;;;;;;;;;;;15.14;100.00;100784.78;5004497;28;19917;-42
2022/09/15 07:18:53;;;;;;;;;;;;;;;15.12;100.00;100776.03;5014113;28;20038;-42
2022/09/15 07:21:19;;;;;;;;;;;;;;;15.11;100.00;100777.09;5014400;28;20384;-43
2022/09/15 07:23:45;;;;;;;;;;;;;;;15.11;100.00;100777.09;4998277;28;19983;-42
2022/09/15 07:26:13;;;;;;;;;;;;;;;15.13;100.00;100783.09;5007628;28;19944;-48
2022/09/15 07:28:39;;;;;;;;;;;;;;;15.18;100.00;100790.59;5013474;28;20308;-42
2022/09/15 07:31:04;;;;;;;;;;;;;;;15.20;100.00;100797.44;5012241;28;20212;-46
2022/09/15 07:33:30;;;;;;;;;;;;;;;15.26;100.00;100787.78;5011175;28;19994;-43
2022/09/15 07:35:55;;;;;;;;;;;;;;;15.35;100.00;100793.84;4998820;28;20420;-46
2022/09/15 07:38:20;;;;;;;;;;;;;;;15.44;100.00;100801.59;4996454;28;19944;-45
2022/09/15 07:40:47;;;;;;;;;;;;;;;15.50;100.00;100797.28;4996675;28;20007;-45
2022/09/15 07:43:13;;;;;;;;;;;;;;;15.51;100.00;100803.50;4996623;28;20436;-43
2022/09/15 07:45:38;;;;;;;;;;;;;;;15.48;100.00;100805.56;4999850;28;19988;-43
2022/09/15 07:48:03;;;;;;;;;;;;;;;15.47;100.00;100813.81;5003340;28;19974;-53
2022/09/15 07:50:29;;;;;;;;;;;;;;;15.45;100.00;100805.94;5004884;28;19961;-44
2022/09/15 07:52:54;;;;;;;;;;;;;;;15.49;100.00;100814.44;4996300;28;19914;-43
2022/09/15 07:55:20;;;;;;;;;;;;;;;15.51;100.00;100816.94;4998179;28;20015;-43
2022/09/15 07:57:45;;;;;;;;;;;;;;;15.51;100.00;100812.38;4996125;28;20013;-44
2022/09/15 08:00:10;;;;;;;;;;;;;;;15.49;100.00;100811.75;4995532;28;20099;-43
2022/09/15 08:02:35;;;;;;;;;;;;;;;15.50;100.00;100818.00;4996348;28;19965;-42
2022/09/15 08:05:01;;;;;;;;;;;;;;;15.60;100.00;100815.81;4994770;28;19917;-44
2022/09/15 08:07:26;;;;;;;;;;;;;;;15.71;100.00;100809.88;4996587;28;19913;-42
2022/09/15 08:09:51;;;;;;;;;;;;;;;15.88;100.00;100823.06;5005463;28;19957;-44
2022/09/15 08:12:16;;;;;;;;;;;;;;;15.96;100.00;100828.31;4998085;28;20073;-43
2022/09/15 08:14:42;;;;;;;;;;;;;;;15.98;100.00;100824.38;5002164;28;19925;-42
2022/09/15 08:17:07;;;;;;;;;;;;;;;16.03;100.00;100830.00;5005398;28;19918;-42
2022/09/15 08:19:33;;;;;;;;;;;;;;;16.11;100.00;100825.50;5011462;28;20340;-44
2022/09/15 08:21:59;;;;;;;;;;;;;;;16.16;100.00;100828.44;5003643;28;19975;-46
2022/09/15 08:24:25;;;;;;;;;;;;;;;16.21;100.00;100828.69;5014864;28;20364;-44
2022/09/15 08:26:50;;;;;;;;;;;;;;;16.30;100.00;100832.03;5021626;28;20477;-42
2022/09/15 08:29:16;;;;;;;;;;;;;;;16.33;100.00;100840.56;5015333;28;19924;-42
2022/09/15 08:31:43;;;;;;;;;;;;;;;16.35;100.00;100838.47;5015864;28;20252;-41
2022/09/15 08:34:09;;;;;;;;;;;;;;;16.34;100.00;100836.81;5007945;28;19944;-44
2022/09/15 08:36:35;;;;;;;;;;;;;;;16.37;100.00;100846.38;5005047;28;19921;-44
2022/09/15 08:39:01;;;;;;;;;;;;;;;16.43;100.00;100840.19;5008083;28;19966;-43
2022/09/15 08:41:31;;;;;;;;;;;;;;;16.49;100.00;100838.56;5001485;28;19964;-45
2022/09/15 08:43:59;;;;;;;;;;;;;;;16.57;100.00;100847.28;4997237;28;19921;-46
2022/09/15 08:46:30;;;;;;;;;;;;;;;16.65;100.00;100845.44;4995519;28;19971;-42
2022/09/15 08:49:15;;;;;;;;;;;;;;;16.71;100.00;100856.28;4998585;28;20005;-45
2022/09/15 08:51:43;;;;;;;;;;;;;;;16.84;100.00;100857.38;4999060;28;20012;-41
2022/09/15 08:54:16;;;;;;;;;;;;;;;16.96;100.00;100861.19;5018431;28;20410;-41
2022/09/15 08:56:42;;;;;;;;;;;;;;;17.02;100.00;100865.75;5006938;28;19927;-44
2022/09/15 08:59:11;;;;;;;;;;;;;;;17.03;100.00;100870.13;4994708;28;19921;-41
2022/09/15 09:01:42;;;;;;;;;;;;;;;16.94;100.00;100877.56;4999502;28;19921;-44
2022/09/15 09:04:33;;;;;;;;;;;;;;;16.81;100.00;100869.38;4995198;28;19956;-43
2022/09/15 09:07:17;;;;;;;;;;;;;;;16.68;100.00;100874.72;5003779;28;20389;-40
2022/09/15 09:09:57;;;;;;;;;;;;;;;16.59;100.00;100874.88;5003005;28;20282;-40
2022/09/15 09:12:31;;;;;;;;;;;;;;;16.56;100.00;100880.69;4996543;28;19919;-44
2022/09/15 09:15:11;;;;;;;;;;;;;;;16.60;100.00;100881.13;5010168;28;20129;-42
2022/09/15 09:17:59;;;;;;;;;;;;;;;16.64;100.00;100884.25;4995128;28;19929;-45
2022/09/15 09:20:47;;;;;;;;;;;;;;;16.61;100.00;100882.78;5000386;28;19921;-41
2022/09/15 09:23:14;;;;;;;;;;;;;;;16.44;100.00;100884.97;5014903;28;19971;-41
2022/09/15 09:25:43;;;;;;;;;;;;;;;16.34;100.00;100896.09;5014170;28;19917;-42
2022/09/15 09:28:21;;;;;;;;;;;;;;;16.26;100.00;100890.91;5013869;28;19921;-41
2022/09/15 09:30:47;;;;;;;;;;;;;;;16.19;100.00;100898.06;5007070;28;19935;-41
2022/09/15 09:33:28;;;;;;;;;;;;;;;16.12;100.00;100887.25;5015370;28;19917;-45
2022/09/15 09:35:54;;;;;;;;;;;;;;;16.09;100.00;100898.44;5012095;28;19917;-43
2022/09/15 09:38:25;;;;;;;;;;;;;;;16.03;100.00;100894.66;5009679;28;19971;-40
2022/09/15 09:40:51;;;;;;;;;;;;;;;15.99;100.00;100896.09;5009773;28;19917;-43
2022/09/15 09:43:16;;;;;;;;;;;;;;;15.96;100.00;100892.97;5007053;28;19921;-42
2022/09/15 09:45:41;;;;;;;;;;;;;;;15.92;100.00;100897.06;5001986;28;20386;-41
2022/09/15 09:48:17;;;;;;;;;;;;;;;15.77;100.00;100899.84;5007849;28;19917;-42
2022/09/15 09:50:42;;;;;;;;;;;;;;;15.76;100.00;100900.88;4998593;28;20564;-41
2022/09/15 09:53:26;;;;;;;;;;;;;;;15.85;100.00;100899.69;5000859;28;19964;-42
2022/09/15 09:56:11;;;;;;;;;;;;;;;15.92;100.00;100900.59;5008795;28;20436;-43
2022/09/15 09:58:37;;;;;;;;;;;;;;;16.11;100.00;100904.47;5007035;28;19917;-39
2022/09/15 10:01:09;;;;;;;;;;;;;;;16.31;100.00;100906.44;4993767;28;19925;-42
2022/09/15 10:03:36;;;;;;;;;;;;;;;16.50;100.00;100899.53;4994963;28;20355;-43
2022/09/15 10:06:14;;;;;;;;;;;;;;;16.64;100.00;100897.75;4999309;28;20312;-41
2022/09/15 10:08:54;;;;;;;;;;;;;;;16.81;100.00;100901.75;4996349;28;19963;-40
2022/09/15 10:11:21;;;;;;;;;;;;;;;16.95;100.00;100890.03;4997732;28;20329;-41
2022/09/15 10:13:53;;;;;;;;;;;;;;;17.13;100.00;100892.16;5011913;28;19925;-43
2022/09/15 10:16:19;;;;;;;;;;;;;;;17.34;100.00;100884.91;5007409;28;20039;-42
2022/09/15 10:18:45;;;;;;;;;;;;;;;17.51;100.00;100891.63;5011108;28;20012;-42
2022/09/15 10:21:12;;;;;;;;;;;;;;;17.60;100.00;100894.09;5009709;28;19970;-41
2022/09/15 10:23:37;;;;;;;;;;;;;;;17.58;100.00;100905.09;4996435;28;19937;-41
2022/09/15 10:26:15;;;;;;;;;;;;;;;17.51;100.00;100905.13;4995077;28;19932;-43
2022/09/15 10:28:40;;;;;;;;;;;;;;;17.28;100.00;100912.75;4994544;28;20009;-43
2022/09/15 10:31:10;;;;;;;;;;;;;;;17.04;100.00;100904.16;4993674;28;20004;-43
2022/09/15 10:33:36;;;;;;;;;;;;;;;16.82;100.00;100911.53;4994604;28;20146;-41
2022/09/15 10:36:11;;;;;;;;;;;;;;;16.45;100.00;100913.59;5002710;28;19936;-43
2022/09/15 10:38:41;;;;;;;;;;;;;;;16.11;100.00;100917.94;4994570;28;19913;-40
2022/09/15 10:41:16;;;;;;;;;;;;;;;15.81;100.00;100912.72;5003376;28;20167;-41
2022/09/15 10:43:44;;;;;;;;;;;;;;;15.61;100.00;100912.53;4992792;28;19960;-44
2022/09/15 10:46:33;;;;;;;;;;;;;;;15.52;100.00;100910.97;4994073;28;20080;-41
2022/09/15 10:48:58;;;;;;;;;;;;;;;15.52;100.00;100910.16;4999165;28;19917;-41
2022/09/15 10:51:29;;;;;;;;;;;;;;;15.48;100.00;100909.69;4992075;28;20474;-43
2022/09/15 10:54:03;;;;;;;;;;;;;;;15.48;100.00;100907.00;4997979;28;20360;-41
2022/09/15 10:56:41;;;;;;;;;;;;;;;15.61;100.00;100907.16;4993680;28;20384;-40
2022/09/15 10:59:13;;;;;;;;;;;;;;;15.77;100.00;100903.38;4992777;28;19925;-42
2022/09/15 11:01:49;;;;;;;;;;;;;;;15.91;100.00;100906.19;4993023;28;19921;-41
2022/09/15 11:04:23;;;;;;;;;;;;;;;16.15;100.00;100904.91;4993006;28;20935;-42
2022/09/15 11:06:57;;;;;;;;;;;;;;;16.38;100.00;100904.66;4996301;28;20384;-42
2022/09/15 11:09:44;;;;;;;;;;;;;;;16.67;100.00;100900.03;4996991;28;20359;-42
2022/09/15 11:12:27;;;;;;;;;;;;;;;17.01;100.00;100909.13;4996001;28;19940;-43
2022/09/15 11:14:59;;;;;;;;;;;;;;;17.31;100.00;100896.97;4996924;28;20378;-43
2022/09/15 11:17:40;;;;;;;;;;;;;;;17.92;100.00;100902.44;4997243;28;19924;-40
2022/09/15 11:20:16;;;;;;;;;;;;;;;18.48;100.00;100903.84;5000985;28;20004;-43
2022/09/15 11:22:46;;;;;;;;;;;;;;;18.68;100.00;100895.66;5018254;28;19932;-42
2022/09/15 11:25:23;;;;;;;;;;;;;;;18.84;100.00;100895.22;5011805;28;19913;-43
2022/09/15 11:27:52;;;;;;;;;;;;;;;18.93;100.00;100901.22;5016172;28;20039;-43
2022/09/15 11:30:22;;;;;;;;;;;;;;;18.97;100.00;100900.53;5016613;28;20352;-41
2022/09/15 11:32:51;;;;;;;;;;;;;;;19.16;100.00;100900.66;5016568;28;20014;-47
2022/09/15 11:35:32;;;;;;;;;;;;;;;19.58;99.73;100906.44;5014933;28;19924;-45
2022/09/15 11:38:02;;;;;;;;;;;;;;;19.95;94.16;100903.91;5016420;28;20058;-41
2022/09/15 11:40:32;;;;;;;;;;;;;;;20.00;90.08;100905.97;5016225;28;19958;-43
2022/09/15 11:43:07;;;;;;;;;;;;;;;19.83;83.26;100911.94;5015788;28;19944;-42
2022/09/15 11:45:39;;;;;;;;;;;;;;;19.71;90.62;100900.94;5015665;28;20051;-45
2022/09/15 11:48:11;;;;;;;;;;;;;;;19.69;89.06;100905.75;5016121;28;20280;-43
2022/09/15 11:50:39;;;;;;;;;;;;;;;19.60;88.05;100906.22;5014676;28;20347;-43
2022/09/15 11:53:22;;;;;;;;;;;;;;;19.49;89.23;100913.19;5016329;28;20026;-44
2022/09/15 11:55:50;;;;;;;;;;;;;;;19.59;94.63;100900.00;5015884;28;19924;-42
2022/09/15 11:58:22;;;;;;;;;;;;;;;19.81;87.57;100900.47;5015052;28;20296;-43
2022/09/15 12:01:07;;;;;;;;;;;;;;;19.90;89.20;100907.28;5015745;28;20063;-42
2022/09/15 12:03:51;;;;;;;;;;;;;;;20.11;87.68;100902.50;5016186;28;19921;-43
2022/09/15 12:06:40;;;;;;;;;;;;;;;20.12;83.01;100896.84;5014039;28;19952;-45
2022/09/15 12:09:06;;;;;;;;;;;;;;;20.19;84.28;100893.25;5000742;28;20295;-44
2022/09/15 12:11:37;;;;;;;;;;;;;;;20.41;84.50;100899.91;5014848;28;19952;-43
2022/09/15 12:14:03;;;;;;;;;;;;;;;20.50;82.26;100890.44;5015204;28;19913;-46
2022/09/15 12:16:28;;;;;;;;;;;;;;;20.35;81.17;100889.97;5004183;28;20295;-45
2022/09/15 12:18:58;;;;;;;;;;;;;;;20.25;84.89;100885.06;5013678;28;19924;-41
2022/09/15 12:21:33;;;;;;;;;;;;;;;20.29;83.18;100880.84;5028511;28;20151;-42
2022/09/15 12:24:03;;;;;;;;;;;;;;;20.40;78.04;100884.69;5015357;28;19932;-43
2022/09/15 12:26:31;;;;;;;;;;;;;;;20.33;81.30;100877.66;5012951;28;19924;-44
2022/09/15 12:29:03;;;;;;;;;;;;;;;20.41;83.49;100875.50;5015851;28;19967;-45
2022/09/15 12:31:30;;;;;;;;;;;;;;;20.72;75.66;100879.13;5015221;28;20287;-45
2022/09/15 12:34:14;;;;;;;;;;;;;;;21.05;75.56;100880.59;5014971;28;19920;-45
2022/09/15 12:36:42;;;;;;;;;;;;;;;21.21;74.19;100877.22;5014970;28;19995;-43